Mexia, TX

9:53 AM CDT on August 30, 2015 (GMT -0500)
Amateur Radio Station KC5PID | | Change Station
CLOSE
Current Station
Personal Weather Station
Location: Mexia, TX
Elevation: 507 ft
Nearby Weather Stations

Elev 507 ft 31.67 °N, 96.47 °W | Updated 15 seconds ago

Overcast
Overcast
79.9 °F
Feels Like 83 °F
N
0.0
Wind Variable Wind from SSW
Gusts 0.0 mph

Today
High -- | Low -- °F
--% Chance of Precip.
Yesterday
High -- | Low -- °F
Precip. -- in
7:00 AM 7:52 PM
Full, 99% visible
Pressure 30.02 in
Visibility 10.0 miles
Clouds Clear
Heat Index 83 °F
Dew Point 69 °F
Humidity 70%
Rainfall 0.00 in
Snow Depth Not available.
UV 1.4 out of 12
Pollen 8.00 out of 12
Air Quality Not available.
Flu Activity Not available.
METAR KLXY 301435Z AUTO 15006KT 10SM CLR 26/19 A3002 RMK AO2 T02600194
Pressure 30.02 in
Visibility 10.0 miles
Clouds Clear
Heat Index 83 °F
Dew Point 69 °F
Humidity 70%
Rainfall 0.00 in
Snow Depth Not available.
UV 1.4 out of 12
Pollen 8.00 out of 12
Air Quality Not available.
Flu Activity Not available.
METAR KLXY 301435Z AUTO 15006KT 10SM CLR 26/19 A3002 RMK AO2 T02600194
Nowcast | as of 6:29 am CDT on August 30, 2015

Areas of sprinkles and very light rain will continue through mid morning across north and central Texas....especially along and south of a Breckenridge to Waxahachie to Athens line. Rainfall amounts are expected to remain very light with totals generally less than one tenth of an inch. Otherwise...conditions will remain mild with temperatures in the 70s and light and variable winds through sunrise. Thereafter...temperatures are expected to climb into the 80s with partly sunny skies.

×

10-Day Weather Forecast

×

Almanac

Astronomy

Aug. 30, 2015 Rise Set
Actual Time
Civil Twilight
Nautical Twilight
Astronomical Twilight
Moon
Length of Visible Light
Length of Day
Tomorrow will be .
, % of the Moon is Illuminated

Today's Extremes

State Highs State Lows

Community

WunderPhotos

Upload Photos

1,850,974 photos uploaded!

WunderBlogs® & News

Nearby

Air Quality

  Air Quality AQ Index Pollutant
Not available.

Snow Depth

Station Depth Elevation

Earthquake Activity

City Distance Mag. Time & Date
Minimum magnitude displayed is 2.5.

Coastal Water Temperatures

Place Temperature

Stations

Nearby Weather Stations

Station Location Temp. Windchill Dew Point Humidity Wind Precip. Elev Updated Type